Terminal Aerodrome Forecast
Issued by NWS

Home | Current Version | Previous Version | Text Only | Print | Product List | Glossary On
Versions: 1 2 3 4 5 6 7 8 9 10 11 12 13 14 15 16 17 18 19 20 21 22 23 24 25 26 27 28 29 30 31 32 33 34
000
FTUS41 KOKX 051100 RRA
TAFTEB
TAF
KTEB 051141Z 0512/0612 34010KT 1SM -SNRA BR SCT007 OVC020
     FM051230 35009G17KT 1SM -SN BR OVC007
      TEMPO 0513/0517 1/4SM +SN FZFG
     FM051700 34012G16KT 3SM -SN BR BKN008 OVC015
     FM051900 33012KT 5SM -SN BR BKN020 OVC050
     FM052200 32010KT P6SM SCT020 BKN050
     FM060700 35009KT P6SM FEW050=

USA.gov is the U.S. government's official web portal to all federal, state and local government web resources and services.